Time;durP1;ratioP1;P1;durP2;ratioP2;P2;SDS_P1;SDS_P2;PMS_P1;PMS_P2;Temp;Humidity;BMP_temperature;BMP_pressure;BME280_temperature;BME280_humidity;BME280_pressure;Samples;Min_cycle;Max_cycle;Signal;HPM_P1;HPM_P2
2022/03/24 00:00:36;;;;;;;29.20;20.90;;;;;;;6.89;55.21;102594.06;4984556;28;20708;-52
2022/03/24 00:03:02;;;;;;;33.73;21.20;;;;;;;6.87;55.94;102590.47;4983839;28;20242;-52
2022/03/24 00:05:29;;;;;;;28.63;23.73;;;;;;;6.88;56.84;102587.03;4982058;28;21132;-52
2022/03/24 00:07:55;;;;;;;28.47;21.30;;;;;;;6.74;56.90;102589.06;4983240;28;20796;-52
2022/03/24 00:10:29;;;;;;;28.53;22.10;;;;;;;6.70;56.96;102587.13;4984171;28;20261;-54
2022/03/24 00:12:56;;;;;;;31.17;20.93;;;;;;;6.64;56.47;102585.13;4981562;28;20603;-51
2022/03/24 00:15:24;;;;;;;29.90;22.03;;;;;;;6.56;57.02;102577.78;4982461;28;20237;-51
2022/03/24 00:17:50;;;;;;;30.33;21.73;;;;;;;6.48;56.92;102582.66;4982466;28;20288;-52
2022/03/24 00:20:17;;;;;;;30.27;21.33;;;;;;;6.41;57.07;102580.59;4984201;28;20253;-53
2022/03/24 00:22:44;;;;;;;29.30;22.27;;;;;;;6.37;56.49;102576.06;4980899;28;20238;-54
2022/03/24 00:25:11;;;;;;;29.10;21.33;;;;;;;6.33;56.35;102582.84;4984059;28;20237;-52
2022/03/24 00:27:38;;;;;;;34.27;22.30;;;;;;;6.31;56.03;102576.66;4989784;28;20256;-53
2022/03/24 00:30:08;;;;;;;30.40;21.10;;;;;;;6.31;56.16;102576.66;4984392;28;20280;-52
2022/03/24 00:32:35;;;;;;;28.97;20.90;;;;;;;6.30;56.04;102577.50;4982146;28;20242;-53
2022/03/24 00:35:02;;;;;;;34.33;22.80;;;;;;;6.29;56.99;102573.09;4984042;28;20245;-52
2022/03/24 00:37:29;;;;;;;32.67;22.30;;;;;;;6.26;57.30;102577.28;4987688;28;20233;-53
2022/03/24 00:39:55;;;;;;;33.63;23.83;;;;;;;6.31;58.09;102575.78;4982721;28;20234;-53
2022/03/24 00:42:22;;;;;;;34.77;23.93;;;;;;;6.26;58.28;102579.91;4988191;28;20233;-52
2022/03/24 00:44:51;;;;;;;36.83;23.17;;;;;;;6.24;58.42;102579.81;4985019;28;20234;-53
2022/03/24 00:47:17;;;;;;;35.57;23.97;;;;;;;6.17;58.33;102578.63;4984119;28;20237;-53
2022/03/24 00:49:48;;;;;;;35.20;23.50;;;;;;;6.14;58.15;102573.28;4984694;28;20238;-53
2022/03/24 00:52:17;;;;;;;35.87;24.70;;;;;;;6.07;58.09;102570.31;4979605;28;20242;-53
2022/03/24 00:54:43;;;;;;;37.10;23.17;;;;;;;6.01;57.30;102570.94;4977554;28;20321;-52
2022/03/24 00:57:09;;;;;;;36.93;23.80;;;;;;;5.96;57.35;102572.41;4978972;28;20275;-52
2022/03/24 00:59:36;;;;;;;32.93;23.00;;;;;;;5.91;57.79;102573.88;4980785;28;20238;-51
2022/03/24 01:02:03;;;;;;;33.40;24.40;;;;;;;5.80;58.27;102577.69;4982012;28;20296;-54
2022/03/24 01:04:30;;;;;;;34.90;22.93;;;;;;;5.72;59.52;102573.00;4983648;28;20241;-52
2022/03/24 01:06:58;;;;;;;36.10;23.07;;;;;;;5.60;59.38;102572.41;4982469;28;20229;-54
2022/03/24 01:09:24;;;;;;;33.23;23.33;;;;;;;5.53;59.78;102578.13;4985493;28;20568;-53
2022/03/24 01:11:51;;;;;;;28.40;22.10;;;;;;;5.47;60.01;102572.59;4986817;28;20657;-53
2022/03/24 01:14:18;;;;;;;29.53;22.17;;;;;;;5.44;59.89;102575.06;4984389;28;20300;-52
2022/03/24 01:16:44;;;;;;;33.03;22.57;;;;;;;5.44;59.37;102575.06;4985033;28;20253;-53
2022/03/24 01:19:14;;;;;;;36.60;22.90;;;;;;;5.38;59.31;102579.97;4985752;28;20298;-53
2022/03/24 01:21:41;;;;;;;29.77;21.30;;;;;;;5.32;59.56;102579.66;4986376;28;20342;-51
2022/03/24 01:24:09;;;;;;;32.73;23.17;;;;;;;5.29;59.80;102572.59;4984740;28;20723;-52
2022/03/24 01:26:35;;;;;;;32.27;21.73;;;;;;;5.28;59.78;102582.94;4991948;28;20253;-52
2022/03/24 01:29:05;;;;;;;32.87;22.87;;;;;;;5.30;60.04;102573.47;4974238;28;20327;-52
2022/03/24 01:31:33;;;;;;;31.87;21.53;;;;;;;5.30;59.10;102568.28;4980809;28;20230;-51
2022/03/24 01:34:02;;;;;;;37.03;21.77;;;;;;;5.33;58.60;102571.91;4980135;28;20238;-54
2022/03/24 01:36:31;;;;;;;36.33;22.87;;;;;;;5.29;59.00;102569.09;4985745;28;20782;-52
2022/03/24 01:38:57;;;;;;;36.20;21.80;;;;;;;5.24;59.28;102568.88;4986625;28;20778;-52
2022/03/24 01:41:25;;;;;;;34.80;21.90;;;;;;;5.23;59.40;102560.19;4985587;28;20292;-53
2022/03/24 01:43:56;;;;;;;32.97;22.13;;;;;;;5.24;59.59;102561.94;4983243;28;20241;-54
2022/03/24 01:46:23;;;;;;;34.43;21.90;;;;;;;5.24;60.51;102554.13;4982614;28;20285;-52
2022/03/24 01:48:50;;;;;;;36.00;22.47;;;;;;;5.20;61.94;102560.03;4979864;28;20569;-54
2022/03/24 01:51:16;;;;;;;36.33;23.00;;;;;;;5.11;62.32;102559.53;4986650;28;20233;-51
2022/03/24 01:53:43;;;;;;;36.00;23.00;;;;;;;5.07;62.47;102559.31;4985898;28;20284;-53
2022/03/24 01:56:11;;;;;;;36.60;21.97;;;;;;;4.99;63.02;102554.63;4984571;28;20610;-52
2022/03/24 01:58:40;;;;;;;34.37;23.60;;;;;;;5.01;62.81;102552.97;4974916;28;20242;-53
2022/03/24 02:01:29;;;;;;;33.83;23.43;;;;;;;4.97;63.19;102560.56;4977070;28;20236;-52
2022/03/24 02:03:56;;;;;;;35.17;22.10;;;;;;;4.98;63.49;102555.44;4975539;28;20234;-54
2022/03/24 02:06:23;;;;;;;32.90;22.17;;;;;;;4.88;64.14;102552.25;4984126;28;20237;-52
2022/03/24 02:08:51;;;;;;;36.17;22.90;;;;;;;4.79;64.10;102550.97;4984817;28;20234;-53
2022/03/24 02:11:18;;;;;;;35.60;22.33;;;;;;;4.75;64.35;102550.75;4985476;28;20694;-52
2022/03/24 02:13:49;;;;;;;30.57;21.30;;;;;;;4.69;64.32;102548.72;4983507;28;20242;-52
2022/03/24 02:16:17;;;;;;;32.33;23.03;;;;;;;4.69;64.15;102553.91;4984603;28;20304;-53
2022/03/24 02:18:45;;;;;;;30.23;21.00;;;;;;;4.59;63.94;102540.34;4984217;28;20707;-54
2022/03/24 02:21:14;;;;;;;31.43;21.00;;;;;;;4.52;63.86;102546.94;4983947;28;20238;-52
2022/03/24 02:23:44;;;;;;;36.67;21.80;;;;;;;4.43;64.21;102536.06;4984779;28;20250;-52
2022/03/24 02:26:10;;;;;;;32.80;21.00;;;;;;;4.39;64.68;102537.59;4983247;28;20243;-53
2022/03/24 02:28:38;;;;;;;31.57;23.13;;;;;;;4.35;65.09;102540.81;4984050;28;20226;-51
2022/03/24 02:31:05;;;;;;;30.97;20.43;;;;;;;4.31;65.35;102547.56;4983807;28;20229;-51
2022/03/24 02:33:31;;;;;;;36.63;22.10;;;;;;;4.28;66.26;102544.84;4981156;28;20248;-51
2022/03/24 02:36:00;;;;;;;35.17;23.43;;;;;;;4.31;65.52;102539.78;4978596;28;20230;-53
2022/03/24 02:38:26;;;;;;;29.90;21.13;;;;;;;4.31;65.90;102537.16;4983557;28;20284;-52
2022/03/24 02:40:55;;;;;;;31.97;20.70;;;;;;;4.28;66.94;102531.84;4981970;28;20242;-53
2022/03/24 02:43:22;;;;;;;30.80;22.43;;;;;;;4.21;66.58;102542.72;4976435;28;20238;-53
2022/03/24 02:45:50;;;;;;;31.20;21.03;;;;;;;4.15;66.64;102541.50;4979665;28;20280;-53
2022/03/24 02:48:16;;;;;;;31.23;22.03;;;;;;;4.16;66.90;102538.97;4972980;28;20236;-53
2022/03/24 02:50:43;;;;;;;32.60;22.17;;;;;;;4.10;67.36;102542.94;4983240;28;20236;-52
2022/03/24 02:53:11;;;;;;;30.93;21.53;;;;;;;4.05;67.99;102538.38;4980604;28;20517;-53
2022/03/24 02:55:37;;;;;;;32.43;22.63;;;;;;;4.11;68.12;102536.91;4984300;28;20238;-52
2022/03/24 02:58:05;;;;;;;34.73;22.90;;;;;;;4.16;68.00;102544.16;4983697;28;20230;-53
2022/03/24 03:00:31;;;;;;;31.83;22.00;;;;;;;4.12;67.97;102543.91;4982377;28;20319;-53
2022/03/24 03:02:58;;;;;;;33.33;20.60;;;;;;;4.02;68.84;102545.13;4983819;28;20234;-53
2022/03/24 03:05:26;;;;;;;33.10;22.03;;;;;;;3.92;68.87;102540.22;4983892;28;20296;-53
2022/03/24 03:07:52;;;;;;;36.17;23.40;;;;;;;3.87;69.07;102541.69;4982860;28;20759;-52
2022/03/24 03:10:22;;;;;;;33.87;22.20;;;;;;;3.86;69.09;102545.06;4984398;28;20233;-53
2022/03/24 03:12:49;;;;;;;30.27;19.70;;;;;;;3.83;69.76;102545.81;4983552;28;20248;-53
2022/03/24 03:15:17;;;;;;;28.33;20.77;;;;;;;3.78;68.93;102544.66;4984760;28;20249;-51
2022/03/24 03:17:43;;;;;;;31.87;23.10;;;;;;;3.74;69.60;102553.09;4981891;28;20277;-53
2022/03/24 03:20:12;;;;;;;31.57;22.67;;;;;;;3.70;69.41;102557.22;4978587;28;20730;-52
2022/03/24 03:22:38;;;;;;;25.10;19.33;;;;;;;3.71;69.61;102559.00;4981163;28;20300;-51
2022/03/24 03:25:05;;;;;;;28.30;21.63;;;;;;;3.65;69.59;102558.69;4978689;28;20238;-52
2022/03/24 03:27:32;;;;;;;30.90;20.87;;;;;;;3.63;69.65;102565.47;4982415;28;20236;-53
2022/03/24 03:29:58;;;;;;;31.73;21.73;;;;;;;3.59;70.49;102558.31;4983605;28;20323;-53
2022/03/24 03:32:26;;;;;;;30.47;21.53;;;;;;;3.59;71.02;102558.31;4981154;28;20225;-51
2022/03/24 03:34:52;;;;;;;32.17;22.53;;;;;;;3.49;70.72;102563.78;4980454;28;20659;-53
2022/03/24 03:37:19;;;;;;;34.47;21.67;;;;;;;3.48;71.29;102564.59;4983185;28;20300;-53
2022/03/24 03:39:47;;;;;;;30.87;22.67;;;;;;;3.48;71.15;102572.41;4982816;28;20464;-51
2022/03/24 03:42:13;;;;;;;31.23;23.10;;;;;;;3.47;70.40;102570.59;4983263;28;20304;-52
2022/03/24 03:44:40;;;;;;;32.37;23.00;;;;;;;3.45;70.56;102565.31;4993839;23;21522;-54
2022/03/24 03:47:07;;;;;;;28.37;21.90;;;;;;;3.38;70.86;102558.00;4984729;28;20249;-54
2022/03/24 03:49:35;;;;;;;31.90;22.27;;;;;;;3.37;71.06;102560.47;4979708;28;20236;-55
2022/03/24 03:52:01;;;;;;;31.97;20.93;;;;;;;3.37;70.66;102566.59;4992259;28;20260;-55
2022/03/24 03:54:28;;;;;;;30.00;21.40;;;;;;;3.31;70.65;102564.53;4989239;28;20292;-55
2022/03/24 03:56:54;;;;;;;31.17;21.67;;;;;;;3.34;71.19;102556.91;4987306;28;20700;-55
2022/03/24 03:59:20;;;;;;;30.20;21.13;;;;;;;3.30;71.18;102570.53;4980201;28;20324;-55
2022/03/24 04:01:49;;;;;;;33.53;20.60;;;;;;;3.28;71.29;102566.06;4982886;28;20692;-55
2022/03/24 04:04:15;;;;;;;30.40;20.90;;;;;;;3.30;72.18;102560.16;4981769;28;20247;-55
2022/03/24 04:06:43;;;;;;;28.97;20.93;;;;;;;3.26;72.01;102565.94;4983679;28;21024;-55
2022/03/24 04:09:09;;;;;;;31.70;22.50;;;;;;;3.27;72.89;102559.06;4983710;28;20607;-55
2022/03/24 04:11:36;;;;;;;34.90;23.83;;;;;;;3.25;73.59;102564.16;4987791;28;20229;-55
2022/03/24 04:14:03;;;;;;;30.53;21.13;;;;;;;3.24;73.82;102562.38;4982533;28;20328;-55
2022/03/24 04:16:33;;;;;;;31.33;23.00;;;;;;;3.20;73.45;102568.19;4982522;28;20235;-55
2022/03/24 04:19:03;;;;;;;31.97;21.63;;;;;;;3.13;73.87;102565.16;4981965;28;20710;-58
2022/03/24 04:21:35;;;;;;;28.40;21.73;;;;;;;3.15;74.63;102567.03;4985305;28;20235;-55
2022/03/24 04:24:06;;;;;;;35.63;23.03;;;;;;;3.04;74.81;102557.72;4984466;28;20669;-54
2022/03/24 04:26:37;;;;;;;31.60;22.57;;;;;;;3.05;75.47;102554.31;4984651;28;20677;-56
2022/03/24 04:29:04;;;;;;;29.57;20.73;;;;;;;3.10;74.68;102565.88;4985381;28;20256;-56
2022/03/24 04:31:31;;;;;;;33.97;21.97;;;;;;;3.03;74.86;102561.13;4983440;28;20237;-55
2022/03/24 04:33:57;;;;;;;34.23;23.43;;;;;;;3.00;74.29;102561.84;4982161;28;20234;-55
2022/03/24 04:36:24;;;;;;;30.23;21.57;;;;;;;2.94;74.69;102564.06;4980065;28;20262;-54
2022/03/24 04:38:50;;;;;;;31.77;20.70;;;;;;;2.92;74.47;102564.78;4980667;28;20241;-55
2022/03/24 04:41:18;;;;;;;36.30;24.10;;;;;;;2.91;75.17;102557.78;4981928;28;20244;-55
2022/03/24 04:43:44;;;;;;;34.83;22.73;;;;;;;2.90;75.06;102561.19;4981247;28;20300;-56
2022/03/24 04:46:10;;;;;;;32.43;22.73;;;;;;;2.84;75.30;102556.53;4979864;28;20302;-55
2022/03/24 04:48:37;;;;;;;33.83;22.03;;;;;;;2.87;75.60;102560.19;4981093;28;20291;-55
2022/03/24 04:51:05;;;;;;;36.83;23.73;;;;;;;2.86;75.36;102562.72;4981858;28;20235;-54
2022/03/24 04:53:31;;;;;;;32.43;22.23;;;;;;;2.80;75.15;102555.44;4981337;28;20296;-54
2022/03/24 04:55:57;;;;;;;34.93;22.67;;;;;;;2.84;76.03;102557.44;4980077;28;20264;-55
2022/03/24 04:58:25;;;;;;;29.80;22.90;;;;;;;2.83;75.86;102547.84;4981468;28;20262;-54
2022/03/24 05:00:51;;;;;;;35.87;25.97;;;;;;;2.77;76.08;102554.38;4985388;28;20341;-56
2022/03/24 05:03:18;;;;;;;35.03;23.17;;;;;;;2.76;76.65;102542.22;4970428;28;20657;-54
2022/03/24 05:05:44;;;;;;;36.77;24.13;;;;;;;2.78;76.30;102551.00;4965090;28;20324;-54
2022/03/24 05:08:10;;;;;;;35.37;23.17;;;;;;;2.78;76.82;102554.47;4963633;28;20708;-54
2022/03/24 05:10:37;;;;;;;33.07;23.00;;;;;;;2.75;76.94;102551.69;4965465;28;20321;-55
2022/03/24 05:13:03;;;;;;;33.03;22.63;;;;;;;2.76;77.17;102555.19;4964736;28;20265;-55
2022/03/24 05:15:31;;;;;;;34.57;23.37;;;;;;;2.72;77.60;102556.69;4963721;28;20311;-54
2022/03/24 05:17:57;;;;;;;35.27;22.90;;;;;;;2.73;77.58;102552.41;4964243;28;20261;-55
2022/03/24 05:20:24;;;;;;;31.10;22.27;;;;;;;2.74;78.49;102549.00;4963187;28;20257;-54
2022/03/24 05:22:50;;;;;;;38.47;23.23;;;;;;;2.77;77.69;102549.19;4965625;28;20238;-54
2022/03/24 05:25:17;;;;;;;33.07;23.83;;;;;;;2.77;78.41;102555.28;4962647;28;20242;-54
2022/03/24 05:27:43;;;;;;;32.90;21.93;;;;;;;2.78;78.50;102554.47;4965277;28;20250;-55
2022/03/24 05:30:10;;;;;;;28.57;22.60;;;;;;;2.74;78.67;102555.09;4964112;28;20310;-56
2022/03/24 05:32:41;;;;;;;38.47;24.73;;;;;;;2.79;78.94;102553.66;4959869;28;20779;-54
2022/03/24 05:35:08;;;;;;;34.93;23.83;;;;;;;2.85;77.46;102551.44;4960929;28;20238;-54
2022/03/24 05:37:35;;;;;;;35.60;26.00;;;;;;;2.79;77.71;102552.78;4969719;28;20233;-54
2022/03/24 05:40:04;;;;;;;34.57;23.43;;;;;;;2.78;77.86;102551.00;4961179;28;20297;-54
2022/03/24 05:42:30;;;;;;;34.10;23.57;;;;;;;2.75;77.54;102556.88;4963755;28;20929;-53
2022/03/24 05:44:56;;;;;;;39.47;23.23;;;;;;;2.71;77.56;102557.50;4964671;28;20254;-54
2022/03/24 05:47:23;;;;;;;35.23;24.40;;;;;;;2.71;78.40;102552.31;4966471;28;20320;-53
2022/03/24 05:49:51;;;;;;;35.23;24.17;;;;;;;2.69;78.11;102559.09;4969349;28;20241;-54
2022/03/24 05:52:17;;;;;;;36.73;25.93;;;;;;;2.66;78.37;102556.31;4965732;28;20253;-55
2022/03/24 05:54:44;;;;;;;41.93;25.37;;;;;;;2.59;79.01;102560.22;4975053;28;20250;-54
2022/03/24 05:57:11;;;;;;;35.23;25.77;;;;;;;2.61;79.42;102562.94;4972442;28;20633;-54
2022/03/24 05:59:38;;;;;;;37.60;25.57;;;;;;;2.68;79.70;102565.09;4972001;28;20315;-55
2022/03/24 06:02:04;;;;;;;37.20;26.13;;;;;;;2.76;79.64;102566.44;4972793;28;20242;-54
2022/03/24 06:04:31;;;;;;;38.63;27.83;;;;;;;2.97;78.62;102569.44;4970404;28;20237;-54
2022/03/24 06:07:01;;;;;;;38.53;26.03;;;;;;;3.03;78.53;102568.91;4974151;28;20506;-54
2022/03/24 06:09:27;;;;;;;40.10;27.63;;;;;;;3.07;78.24;102571.75;4971069;28;20237;-54
2022/03/24 06:11:56;;;;;;;41.73;26.80;;;;;;;3.09;78.55;102577.97;4970597;28;20239;-54
2022/03/24 06:14:22;;;;;;;38.50;26.97;;;;;;;3.30;77.40;102570.53;4982139;28;20242;-53
2022/03/24 06:16:49;;;;;;;44.37;29.43;;;;;;;3.33;77.01;102581.09;4971040;28;20313;-54
2022/03/24 06:19:15;;;;;;;36.67;26.30;;;;;;;3.31;77.13;102572.31;4970744;28;20245;-54
2022/03/24 06:21:42;;;;;;;37.93;27.07;;;;;;;3.30;77.66;102580.91;4975264;28;20260;-54
2022/03/24 06:24:11;;;;;;;46.10;27.43;;;;;;;3.31;77.88;102576.63;4970071;28;20232;-55
2022/03/24 06:26:41;;;;;;;46.57;29.63;;;;;;;3.49;77.09;102576.78;4962917;28;20242;-59
2022/03/24 06:29:10;;;;;;;42.03;27.30;;;;;;;3.54;76.99;102580.53;4967291;28;20230;-54
2022/03/24 06:31:37;;;;;;;39.97;28.20;;;;;;;3.66;77.04;102591.63;4971543;28;20309;-54
2022/03/24 06:34:03;;;;;;;40.97;27.83;;;;;;;3.74;77.08;102585.16;4974274;28;20296;-55
2022/03/24 06:36:30;;;;;;;38.47;27.73;;;;;;;3.81;76.53;102581.19;4971640;28;20612;-55
2022/03/24 06:38:56;;;;;;;44.47;29.17;;;;;;;3.94;76.23;102577.59;4980037;28;20261;-54
2022/03/24 06:41:24;;;;;;;41.60;29.87;;;;;;;4.02;75.79;102571.09;4967766;28;20238;-53
2022/03/24 06:43:50;;;;;;;42.43;29.13;;;;;;;4.15;75.30;102577.88;4986226;28;20285;-55
2022/03/24 06:46:17;;;;;;;40.77;26.47;;;;;;;4.14;75.45;102582.19;4971701;28;20238;-54
2022/03/24 06:48:43;;;;;;;46.87;30.43;;;;;;;4.32;74.90;102582.28;4986382;28;20284;-55
2022/03/24 06:51:09;;;;;;;38.87;29.40;;;;;;;4.28;75.70;102586.44;4967645;28;20223;-55
2022/03/24 06:53:36;;;;;;;42.03;30.43;;;;;;;4.41;74.91;102587.97;4968058;28;20316;-54
2022/03/24 06:56:04;;;;;;;44.97;30.37;;;;;;;4.61;74.86;102582.97;4969376;28;20238;-54
2022/03/24 06:58:34;;;;;;;47.43;32.37;;;;;;;4.75;73.84;102580.25;4983609;28;20240;-54
2022/03/24 07:01:01;;;;;;;46.43;29.60;;;;;;;4.86;73.23;102585.13;4972166;28;20290;-54
2022/03/24 07:03:27;;;;;;;44.37;31.47;;;;;;;5.05;71.98;102580.03;4970041;28;20391;-55
2022/03/24 07:05:53;;;;;;;40.10;28.93;;;;;;;4.94;72.23;102583.81;4966580;28;20316;-53
2022/03/24 07:08:20;;;;;;;39.63;30.63;;;;;;;4.92;72.56;102586.34;4972286;28;20634;-54
2022/03/24 07:10:46;;;;;;;40.60;30.13;;;;;;;5.09;72.22;102587.22;4965996;28;20281;-55
2022/03/24 07:13:13;;;;;;;43.43;30.27;;;;;;;5.14;72.08;102587.44;4971549;28;20258;-58
2022/03/24 07:15:40;;;;;;;47.40;32.77;;;;;;;5.31;70.79;102591.81;4982744;28;20270;-55
2022/03/24 07:18:07;;;;;;;37.80;27.70;;;;;;;5.34;71.41;102591.97;4964527;28;20285;-54
2022/03/24 07:20:34;;;;;;;39.57;28.60;;;;;;;5.38;71.47;102585.19;4965606;28;20262;-53
2022/03/24 07:23:02;;;;;;;43.10;31.93;;;;;;;5.65;70.48;102591.78;4962364;28;20241;-55
2022/03/24 07:25:29;;;;;;;42.87;30.03;;;;;;;5.66;70.50;102588.34;4966787;28;20246;-60
2022/03/24 07:27:56;;;;;;;44.97;30.93;;;;;;;5.74;70.99;102586.09;4965606;28;20268;-54
2022/03/24 07:30:22;;;;;;;42.13;28.70;;;;;;;6.09;70.89;102589.53;4966374;28;20608;-55
2022/03/24 07:32:51;;;;;;;40.87;31.13;;;;;;;6.06;68.36;102590.28;4987842;28;20770;-54
2022/03/24 07:35:18;;;;;;;40.53;29.30;;;;;;;6.26;67.98;102595.53;4997811;28;20532;-56
2022/03/24 07:37:45;;;;;;;41.50;30.10;;;;;;;6.36;68.01;102598.66;4973150;28;20241;-54
2022/03/24 07:40:12;;;;;;;41.53;29.83;;;;;;;6.43;67.54;102592.00;4965487;28;20606;-54
2022/03/24 07:42:39;;;;;;;52.57;34.70;;;;;;;6.42;66.37;102596.34;4963308;28;20221;-55
2022/03/24 07:45:06;;;;;;;45.00;30.23;;;;;;;7.01;67.06;102591.09;4965271;28;20796;-55
2022/03/24 07:47:35;;;;;;;42.67;30.43;;;;;;;7.07;64.58;102599.19;4967271;28;20242;-55
2022/03/24 07:50:03;;;;;;;46.70;31.63;;;;;;;7.07;64.12;102588.75;4965973;28;20234;-56
2022/03/24 07:52:32;;;;;;;43.73;28.63;;;;;;;7.30;64.28;102592.31;4964551;28;20712;-55
2022/03/24 07:54:59;;;;;;;42.40;31.03;;;;;;;7.45;63.41;102592.97;4965266;28;20329;-55
2022/03/24 07:57:27;;;;;;;44.53;31.43;;;;;;;7.62;62.46;102591.97;4968130;28;20348;-55
2022/03/24 07:59:53;;;;;;;41.67;29.23;;;;;;;7.77;62.08;102583.84;4971352;28;20233;-56
2022/03/24 08:02:20;;;;;;;42.40;29.47;;;;;;;8.06;59.45;102582.38;4982665;28;20724;-53
2022/03/24 08:04:46;;;;;;;40.37;28.17;;;;;;;8.24;59.22;102583.91;4965155;28;20300;-53
2022/03/24 08:07:14;;;;;;;38.43;28.33;;;;;;;8.47;58.55;102587.44;4979944;28;20230;-52
2022/03/24 08:09:40;;;;;;;39.07;29.57;;;;;;;8.67;57.10;102588.16;4999856;28;20295;-53
2022/03/24 08:12:08;;;;;;;39.63;27.17;;;;;;;8.78;56.95;102590.34;4985538;28;20646;-56
2022/03/24 08:14:35;;;;;;;38.43;28.37;;;;;;;9.08;56.12;102595.78;4982178;28;20316;-54
2022/03/24 08:17:02;;;;;;;35.13;26.40;;;;;;;9.17;56.12;102589.09;4998685;28;20656;-53
2022/03/24 08:19:28;;;;;;;44.17;30.13;;;;;;;9.20;55.57;102584.84;4987226;28;20235;-53
2022/03/24 08:21:55;;;;;;;42.90;30.87;;;;;;;9.12;55.76;102593.25;4988507;28;20276;-51
2022/03/24 08:24:22;;;;;;;44.57;35.10;;;;;;;9.46;55.29;102584.84;4970259;28;20477;-50
2022/03/24 08:26:49;;;;;;;50.40;34.63;;;;;;;9.79;52.80;102587.66;5000061;28;20246;-52
2022/03/24 08:29:15;;;;;;;43.03;30.90;;;;;;;9.87;52.88;102586.19;4991619;28;20608;-50
2022/03/24 08:31:42;;;;;;;39.17;28.37;;;;;;;10.03;52.97;102583.16;4971141;28;20628;-52
2022/03/24 08:34:08;;;;;;;39.97;30.43;;;;;;;9.88;52.41;102587.94;4965813;28;20771;-55
2022/03/24 08:36:34;;;;;;;37.50;28.23;;;;;;;10.07;52.76;102589.41;4961841;28;20269;-50
2022/03/24 08:39:01;;;;;;;43.73;32.37;;;;;;;10.14;51.89;102588.75;4970422;28;20254;-51
2022/03/24 08:41:28;;;;;;;54.07;32.33;;;;;;;10.07;52.09;102596.38;4963776;28;20238;-51
2022/03/24 08:43:55;;;;;;;41.97;29.53;;;;;;;10.32;51.51;102593.72;4965210;28;20842;-51
2022/03/24 08:46:24;;;;;;;40.90;29.47;;;;;;;10.39;50.95;102595.69;4965063;28;20292;-53
2022/03/24 08:48:54;;;;;;;40.30;26.30;;;;;;;10.64;50.52;102599.91;4965236;28;20257;-52
2022/03/24 08:51:20;;;;;;;48.07;30.03;;;;;;;10.80;49.90;102600.34;4980068;28;20224;-52
2022/03/24 08:53:47;;;;;;;46.33;29.07;;;;;;;10.81;49.69;102597.78;4983321;28;20331;-52
2022/03/24 08:56:13;;;;;;;40.57;28.77;;;;;;;10.97;48.65;102599.97;4975026;28;20321;-53
2022/03/24 08:58:41;;;;;;;37.60;26.50;;;;;;;10.99;48.46;102607.91;4972687;28;20234;-53
2022/03/24 09:01:08;;;;;;;38.58;25.67;;;;;;;10.88;48.55;102602.34;4968984;28;20243;-52
2022/03/24 09:03:34;;;;;;;37.60;28.02;;;;;;;10.95;49.79;102606.94;4958259;28;20443;-52
2022/03/24 09:06:00;;;;;;;40.23;26.97;;;;;;;10.96;49.36;102613.94;4963832;28;20290;-52
2022/03/24 09:08:27;;;;;;;36.35;26.35;;;;;;;11.18;48.74;102609.28;4971083;28;20234;-54
2022/03/24 09:10:53;;;;;;;43.20;27.88;;;;;;;11.31;48.49;102611.38;4971099;28;20237;-53
2022/03/24 09:13:19;;;;;;;32.22;24.55;;;;;;;11.58;47.61;102613.84;4972244;28;20312;-52
2022/03/24 09:15:48;;;;;;;41.95;28.05;;;;;;;11.69;46.55;102604.47;4965169;28;20266;-52
2022/03/24 09:18:18;;;;;;;43.45;25.60;;;;;;;12.00;45.36;102610.47;4982589;28;20625;-55
2022/03/24 09:20:44;;;;;;;34.33;25.63;;;;;;;12.24;44.08;102606.63;4995004;28;20257;-51
2022/03/24 09:23:21;;;;;;;33.65;25.63;;;;;;;12.35;44.42;102616.53;4968886;28;20615;-52
2022/03/24 09:25:48;;;;;;;32.80;23.52;;;;;;;12.40;42.62;102607.00;4975573;28;20237;-52
2022/03/24 09:28:14;;;;;;;37.83;25.42;;;;;;;12.26;41.75;102612.81;4973048;28;20281;-51
2022/03/24 09:30:42;;;;;;;35.17;24.92;;;;;;;12.29;42.84;102605.00;4982443;28;20268;-54
2022/03/24 09:33:10;;;;;;;35.08;24.67;;;;;;;12.48;43.35;102611.53;4972448;28;20242;-55
2022/03/24 09:35:36;;;;;;;33.03;24.23;;;;;;;12.83;42.05;102614.91;4968992;28;20847;-51
2022/03/24 09:38:03;;;;;;;38.78;26.60;;;;;;;13.19;41.23;102609.44;4972444;28;20235;-55
2022/03/24 09:40:30;;;;;;;36.13;24.30;;;;;;;13.32;40.63;102610.59;4967928;28;20265;-52
2022/03/24 09:42:57;;;;;;;38.53;29.52;;;;;;;13.23;39.64;102611.28;4967136;28;20432;-54
2022/03/24 09:45:25;;;;;;;36.97;25.48;;;;;;;12.74;41.66;102607.72;4969116;28;20886;-53
2022/03/24 09:47:52;;;;;;;31.23;22.20;;;;;;;13.07;40.26;102612.75;4994142;28;20228;-54
2022/03/24 09:50:20;;;;;;;31.80;23.23;;;;;;;13.09;41.14;102612.75;4988032;28;20255;-54
2022/03/24 09:52:47;;;;;;;33.70;24.50;;;;;;;13.08;39.97;102611.00;4968267;28;20233;-55
2022/03/24 09:55:13;;;;;;;33.45;25.08;;;;;;;13.14;39.06;102604.09;4968898;28;20258;-55
2022/03/24 09:57:42;;;;;;;35.47;24.13;;;;;;;13.39;39.41;102608.94;4970112;28;20243;-53
2022/03/24 10:00:10;;;;;;;34.53;25.70;;;;;;;13.62;38.54;102599.69;4970721;28;20470;-55
2022/03/24 10:02:40;;;;;;;40.08;21.50;;;;;;;13.68;36.95;102594.47;4971229;28;20324;-54
2022/03/24 10:05:08;;;;;;;30.60;22.45;;;;;;;13.58;37.59;102601.38;4968182;28;20485;-52
2022/03/24 10:07:45;;;;;;;32.22;23.25;;;;;;;13.11;38.61;102603.13;4965271;28;20242;-54
2022/03/24 10:10:23;;;;;;;28.13;22.50;;;;;;;13.39;37.81;102603.69;4968336;28;20305;-54
2022/03/24 10:12:49;;;;;;;27.73;21.33;;;;;;;13.47;38.32;102600.28;4968190;28;20281;-52
2022/03/24 10:15:17;;;;;;;29.80;21.58;;;;;;;13.68;36.90;102597.13;4968861;28;20253;-52
2022/03/24 10:17:51;;;;;;;27.25;21.67;;;;;;;13.61;36.44;102590.84;4967229;28;20293;-53
2022/03/24 10:20:17;;;;;;;49.00;22.50;;;;;;;13.13;36.93;102588.25;4967254;28;20243;-53
2022/03/24 10:22:55;;;;;;;43.95;21.65;;;;;;;13.22;37.69;102601.56;4970196;28;20284;-53
2022/03/24 10:25:23;;;;;;;30.05;20.98;;;;;;;13.34;36.55;102593.94;4958194;28;20242;-53
2022/03/24 10:27:51;;;;;;;29.75;19.38;;;;;;;13.53;35.95;102594.25;4963169;28;20242;-52
2022/03/24 10:30:17;;;;;;;26.77;19.30;;;;;;;13.65;35.07;102588.25;4960246;28;20238;-52
2022/03/24 10:32:55;;;;;;;24.05;17.90;;;;;;;13.66;34.95;102592.69;4968008;28;20253;-53
2022/03/24 10:35:22;;;;;;;26.73;17.92;;;;;;;13.92;33.67;102596.63;4981777;28;20248;-53
2022/03/24 10:37:49;;;;;;;24.08;18.10;;;;;;;13.88;33.83;102596.56;4985381;28;20300;-53
2022/03/24 10:40:17;;;;;;;26.15;19.02;;;;;;;13.50;35.04;102591.53;4957716;28;20713;-53
2022/03/24 10:42:44;;;;;;;26.23;19.33;;;;;;;13.87;34.38;102587.75;4960341;28;20725;-54
2022/03/24 10:45:18;;;;;;;29.98;17.92;;;;;;;14.09;33.14;102586.31;4982589;28;20304;-53
2022/03/24 10:47:50;;;;;;;23.45;17.55;;;;;;;13.97;33.28;102580.81;4985647;28;20317;-54
2022/03/24 10:50:37;;;;;;;24.98;17.83;;;;;;;14.11;32.35;102581.94;4974755;28;20645;-52
2022/03/24 10:53:05;;;;;;;20.67;16.45;;;;;;;14.13;31.74;102577.56;4967748;28;20234;-53
2022/03/24 10:55:55;;;;;;;26.65;16.73;;;;;;;14.05;32.20;102581.84;4978621;28;20240;-52
2022/03/24 10:58:28;;;;;;;23.85;16.60;;;;;;;14.14;32.27;102576.69;4965564;28;20816;-53
2022/03/24 11:00:58;;;;;;;25.17;16.77;;;;;;;14.06;32.68;102579.22;4980358;28;20695;-53
2022/03/24 11:03:25;;;;;;;21.52;14.35;;;;;;;14.27;31.79;102578.63;4981263;28;20230;-54
2022/03/24 11:05:51;;;;;;;23.20;16.08;;;;;;;14.05;31.81;102576.56;4978504;28;20748;-57
2022/03/24 11:08:19;;;;;;;24.50;15.65;;;;;;;14.02;31.68;102572.13;4977063;28;20760;-52
2022/03/24 11:10:47;;;;;;;24.70;14.07;;;;;;;14.44;30.68;102570.03;4969176;28;20237;-52
2022/03/24 11:13:25;;;;;;;25.40;15.45;;;;;;;14.76;29.70;102570.44;4980557;28;20292;-54
2022/03/24 11:15:53;;;;;;;18.35;13.25;;;;;;;14.64;30.24;102565.91;4982411;28;20292;-52